Time;durP1;ratioP1;P1;durP2;ratioP2;P2;SDS_P1;SDS_P2;PMS_P1;PMS_P2;Temp;Humidity;BMP_temperature;BMP_pressure;BME280_temperature;BME280_humidity;BME280_pressure;Samples;Min_cycle;Max_cycle;Signal;HPM_P1;HPM_P2
2022/03/19 00:02:05;;;;;;;23.27;9.77;;;;;;;-2.27;65.24;96644.78;5078632;28;20600;-80
2022/03/19 00:04:32;;;;;;;23.15;10.20;;;;;;;-2.21;65.40;96644.00;5082171;28;20227;-80
2022/03/19 00:06:59;;;;;;;23.00;9.75;;;;;;;-2.27;65.17;96644.78;5073390;28;20202;-79
2022/03/19 00:09:26;;;;;;;26.55;9.90;;;;;;;-2.29;66.08;96640.69;5072904;28;20199;-79
2022/03/19 00:11:54;;;;;;;23.75;10.60;;;;;;;-2.31;66.39;96643.53;5072660;28;20253;-79
2022/03/19 00:14:24;;;;;;;27.85;10.55;;;;;;;-2.29;66.23;96651.31;5080764;28;20560;-79
2022/03/19 00:16:53;;;;;;;25.58;9.68;;;;;;;-2.28;66.57;96648.44;5073125;28;20215;-78
2022/03/19 00:19:20;;;;;;;18.33;10.40;;;;;;;-2.33;65.86;96642.94;5072947;28;20287;-78
2022/03/19 00:21:47;;;;;;;28.02;11.25;;;;;;;-2.31;66.12;96638.22;5072815;28;20280;-78
2022/03/19 00:24:13;;;;;;;21.63;10.35;;;;;;;-2.38;66.33;96645.34;5072798;28;20206;-78
2022/03/19 00:26:40;;;;;;;22.98;9.43;;;;;;;-2.45;66.50;96636.53;5072373;28;20195;-79
2022/03/19 00:29:07;;;;;;;20.65;9.48;;;;;;;-2.45;67.05;96651.63;5073666;28;20230;-79
2022/03/19 00:31:35;;;;;;;24.10;9.07;;;;;;;-2.47;66.80;96635.94;5066335;28;20575;-79
2022/03/19 00:34:03;;;;;;;20.90;10.10;;;;;;;-2.41;66.50;96643.09;5081381;28;20587;-79
2022/03/19 00:36:31;;;;;;;24.00;9.90;;;;;;;-2.46;66.45;96634.88;5070092;28;20681;-78
2022/03/19 00:38:58;;;;;;;22.92;8.40;;;;;;;-2.51;66.57;96637.31;5073812;28;20210;-78
2022/03/19 00:41:24;;;;;;;23.92;10.05;;;;;;;-2.65;66.62;96641.75;5092078;28;20226;-79
2022/03/19 00:43:52;;;;;;;28.50;9.52;;;;;;;-2.64;66.48;96637.25;5078873;28;20210;-79
2022/03/19 00:46:19;;;;;;;20.92;9.15;;;;;;;-2.68;66.56;96633.34;5092947;28;20601;-79
2022/03/19 00:48:46;;;;;;;19.23;8.52;;;;;;;-2.67;66.77;96642.94;5078701;28;20455;-79
2022/03/19 00:51:15;;;;;;;22.13;9.90;;;;;;;-2.66;67.19;96644.59;5083489;28;20658;-80
2022/03/19 00:53:41;;;;;;;20.20;8.88;;;;;;;-2.75;67.90;96645.75;5085521;28;20213;-79
2022/03/19 00:56:08;;;;;;;17.48;7.88;;;;;;;-2.74;68.01;96648.22;5080668;28;20213;-79
2022/03/19 00:58:35;;;;;;;19.90;8.68;;;;;;;-2.75;67.92;96645.75;5078480;28;20198;-79
2022/03/19 01:01:02;;;;;;;18.70;7.22;;;;;;;-2.77;67.99;96642.47;5082512;28;20210;-79
2022/03/19 01:03:29;;;;;;;15.93;7.78;;;;;;;-2.65;67.19;96646.22;5085940;28;20211;-79
2022/03/19 01:05:56;;;;;;;17.90;8.43;;;;;;;-2.62;66.59;96643.19;5081532;28;20201;-79
2022/03/19 01:08:24;;;;;;;18.00;8.77;;;;;;;-2.83;66.94;96649.38;5072280;28;20234;-79
2022/03/19 01:10:51;;;;;;;24.90;8.55;;;;;;;-3.04;68.72;96647.59;5051535;28;20219;-78
2022/03/19 01:13:18;;;;;;;15.18;7.22;;;;;;;-2.98;69.92;96652.13;5054988;28;20210;-80
2022/03/19 01:15:45;;;;;;;14.82;7.85;;;;;;;-2.86;68.50;96652.41;5081727;28;20222;-79
2022/03/19 01:18:12;;;;;;;17.77;8.25;;;;;;;-2.69;69.05;96639.66;5078700;28;20206;-79
2022/03/19 01:20:39;;;;;;;19.15;9.40;;;;;;;-2.69;69.37;96640.47;5082345;28;20203;-80
2022/03/19 01:23:06;;;;;;;18.60;8.85;;;;;;;-2.63;67.05;96638.88;5085745;28;20636;-80
2022/03/19 01:25:34;;;;;;;15.13;7.80;;;;;;;-2.63;67.46;96638.88;5083825;28;20214;-80
2022/03/19 01:28:01;;;;;;;19.05;9.02;;;;;;;-2.63;68.36;96638.88;5074436;28;20223;-80
2022/03/19 01:30:28;;;;;;;16.85;8.07;;;;;;;-2.78;67.83;96636.34;5083739;28;20537;-78
2022/03/19 01:32:55;;;;;;;15.90;7.72;;;;;;;-2.74;67.94;96631.50;5078984;28;20229;-78
2022/03/19 01:35:22;;;;;;;16.85;8.98;;;;;;;-2.69;67.76;96640.47;5081350;28;20206;-78
2022/03/19 01:37:50;;;;;;;17.48;8.63;;;;;;;-2.81;69.07;96625.31;5085861;28;20207;-79
2022/03/19 01:40:18;;;;;;;17.00;7.95;;;;;;;-2.78;69.89;96630.22;5083813;28;20210;-80
2022/03/19 01:42:49;;;;;;;19.27;8.68;;;;;;;-2.78;69.92;96624.94;5072967;28;20231;-80
2022/03/19 01:45:17;;;;;;;17.80;7.18;;;;;;;-2.92;70.17;96622.19;5085468;28;20194;-78
2022/03/19 01:47:44;;;;;;;18.13;7.97;;;;;;;-2.91;69.87;96623.84;5071840;28;20247;-79
2022/03/19 01:50:12;;;;;;;23.42;8.77;;;;;;;-3.03;70.27;96612.13;5084737;28;20230;-79
2022/03/19 01:52:39;;;;;;;24.25;10.00;;;;;;;-2.93;69.21;96619.72;5065668;28;20584;-79
2022/03/19 01:55:07;;;;;;;15.82;8.75;;;;;;;-2.80;68.83;96619.00;5078130;28;20203;-78
2022/03/19 01:57:38;;;;;;;14.27;7.60;;;;;;;-3.01;69.96;96612.75;5079280;28;20202;-78
2022/03/19 02:00:10;;;;;;;15.50;7.80;;;;;;;-3.09;70.48;96627.97;5078787;28;20218;-78
2022/03/19 02:02:37;;;;;;;23.55;9.85;;;;;;;-3.01;69.96;96623.38;5081994;28;20235;-78
2022/03/19 02:05:04;;;;;;;17.35;8.43;;;;;;;-2.84;68.86;96615.09;5074181;28;20215;-79
2022/03/19 02:07:32;;;;;;;19.35;8.43;;;;;;;-2.87;67.96;96614.47;5073694;28;20220;-78
2022/03/19 02:10:00;;;;;;;14.90;7.03;;;;;;;-2.92;69.22;96608.94;5069462;28;20222;-78
2022/03/19 02:12:27;;;;;;;18.05;7.97;;;;;;;-3.01;68.40;96606.63;5081001;28;20202;-79
2022/03/19 02:14:54;;;;;;;15.38;7.47;;;;;;;-3.15;68.83;96620.81;5084821;28;20315;-79
2022/03/19 02:17:24;;;;;;;17.02;8.02;;;;;;;-3.12;68.79;96612.44;5081282;28;20565;-79
2022/03/19 02:19:52;;;;;;;15.90;8.57;;;;;;;-2.99;68.67;96610.72;5088012;28;20207;-79
2022/03/19 02:22:21;;;;;;;14.82;7.85;;;;;;;-3.02;69.41;96608.47;5082131;28;20230;-79
2022/03/19 02:27:36;;;;;;;19.70;7.40;;;;;;;-2.93;69.60;96604.66;5077676;28;20234;-79
2022/03/19 02:30:08;;;;;;;18.00;8.70;;;;;;;-2.93;69.42;96602.00;5083678;28;20214;-80
2022/03/19 02:32:35;;;;;;;19.98;8.77;;;;;;;-3.00;69.31;96605.59;5084769;28;20270;-80
2022/03/19 02:35:02;;;;;;;28.02;8.98;;;;;;;-3.03;69.45;96596.22;5079922;28;20202;-80
2022/03/19 02:37:38;;;;;;;31.58;9.10;;;;;;;-3.10;70.08;96605.13;5077641;28;20210;-80
2022/03/19 02:40:09;;;;;;;20.27;9.25;;;;;;;-3.09;69.45;96612.88;5081828;28;20219;-80
2022/03/19 02:42:36;;;;;;;22.77;9.82;;;;;;;-3.06;69.21;96607.22;5071105;28;20570;-80
2022/03/19 02:45:05;;;;;;;29.00;9.40;;;;;;;-3.08;69.29;96613.72;5082805;28;20198;-80
2022/03/19 02:47:31;;;;;;;19.23;8.48;;;;;;;-3.30;71.11;96615.59;5086083;28;20227;-80
2022/03/19 02:49:58;;;;;;;16.38;7.82;;;;;;;-3.48;71.32;96617.88;5082742;28;20299;-80
2022/03/19 02:52:25;;;;;;;19.50;8.25;;;;;;;-3.60;71.56;96625.53;5077367;28;20198;-80
2022/03/19 02:54:53;;;;;;;22.33;8.20;;;;;;;-3.51;71.22;96629.66;5079633;28;20199;-80
2022/03/19 02:57:21;;;;;;;17.42;7.50;;;;;;;-3.43;70.91;96631.38;5083858;28;20561;-80
2022/03/19 02:59:48;;;;;;;16.17;6.65;;;;;;;-3.22;71.56;96634.00;5083312;28;20213;-80
2022/03/19 03:02:16;;;;;;;18.25;7.10;;;;;;;-3.14;70.13;96630.41;5076973;28;20695;-80
2022/03/19 03:04:43;;;;;;;15.45;7.18;;;;;;;-3.09;70.04;96633.28;5078834;28;20257;-80
2022/03/19 03:07:10;;;;;;;13.48;6.72;;;;;;;-3.01;70.65;96636.63;5084536;28;20775;-80
2022/03/19 03:09:37;;;;;;;15.10;7.63;;;;;;;-3.00;70.93;96630.28;5084121;28;20675;-80
2022/03/19 03:12:04;;;;;;;17.38;8.52;;;;;;;-3.05;70.25;96631.88;5071129;28;20545;-80
2022/03/19 03:14:32;;;;;;;20.48;8.50;;;;;;;-3.15;70.77;96628.75;5084542;28;20226;-80
2022/03/19 03:17:01;;;;;;;17.85;7.13;;;;;;;-3.23;70.26;96627.06;5078342;28;20208;-80
2022/03/19 03:19:28;;;;;;;15.15;6.30;;;;;;;-3.16;70.00;96622.63;5077603;28;20286;-80
2022/03/19 03:21:55;;;;;;;20.73;7.93;;;;;;;-3.25;71.02;96624.59;5083216;28;20557;-81
2022/03/19 03:24:22;;;;;;;18.50;7.75;;;;;;;-3.37;71.46;96633.25;5073487;28;20218;-79
2022/03/19 03:26:49;;;;;;;23.05;8.77;;;;;;;-3.34;70.26;96631.06;5087383;28;20298;-80
2022/03/19 03:29:17;;;;;;;15.63;7.57;;;;;;;-3.23;73.55;96621.75;5088253;28;20202;-79
2022/03/19 03:31:45;;;;;;;19.38;7.88;;;;;;;-3.17;72.30;96621.00;5082015;28;20229;-80
2022/03/19 03:34:12;;;;;;;15.32;8.27;;;;;;;-3.13;71.22;96622.22;5079037;28;20195;-80
2022/03/19 03:36:39;;;;;;;15.80;7.03;;;;;;;-3.09;71.86;96612.88;5082354;28;20213;-80
2022/03/19 03:39:06;;;;;;;21.92;9.10;;;;;;;-3.01;71.60;96619.91;5080367;28;20681;-80
2022/03/19 03:41:34;;;;;;;20.08;8.60;;;;;;;-2.94;71.05;96616.25;5076110;28;20294;-80
2022/03/19 03:44:01;;;;;;;15.00;7.80;;;;;;;-3.08;70.83;96619.84;5084208;28;20256;-79
2022/03/19 03:46:28;;;;;;;14.13;7.40;;;;;;;-3.06;73.16;96617.81;5084404;28;20561;-79
2022/03/19 03:48:56;;;;;;;17.25;8.05;;;;;;;-3.15;71.07;96621.63;5080565;28;20226;-80
2022/03/19 03:51:23;;;;;;;16.15;8.00;;;;;;;-3.16;71.77;96627.13;5084515;28;20234;-80
2022/03/19 03:53:50;;;;;;;17.23;7.45;;;;;;;-3.18;71.16;96624.66;5087594;28;20202;-80
2022/03/19 03:56:17;;;;;;;18.20;8.35;;;;;;;-3.16;70.02;96625.28;5084326;28;20202;-79
2022/03/19 03:58:45;;;;;;;20.42;8.20;;;;;;;-3.19;70.80;96628.31;5077277;28;20628;-79
2022/03/19 04:01:13;;;;;;;12.38;7.50;;;;;;;-3.31;71.87;96628.03;5073799;28;20277;-80
2022/03/19 04:03:39;;;;;;;20.52;8.48;;;;;;;-3.33;72.77;96616.78;5087201;28;20246;-79
2022/03/19 04:06:08;;;;;;;20.45;8.63;;;;;;;-3.20;73.55;96621.38;5084408;28;20205;-81
2022/03/19 04:08:34;;;;;;;23.45;9.07;;;;;;;-3.29;73.61;96623.34;5080706;28;20613;-79
2022/03/19 04:11:01;;;;;;;14.38;8.23;;;;;;;-3.19;74.74;96628.31;5083371;28;20213;-81
2022/03/19 04:13:28;;;;;;;20.95;9.75;;;;;;;-3.34;73.53;96619.63;5091570;28;20199;-79
2022/03/19 04:15:55;;;;;;;21.98;10.30;;;;;;;-3.20;73.78;96626.69;5083005;28;20276;-80
2022/03/19 04:18:22;;;;;;;20.52;8.95;;;;;;;-3.29;73.88;96625.19;5087380;28;20207;-79
2022/03/19 04:20:53;;;;;;;15.00;7.15;;;;;;;-3.22;74.47;96631.34;5084883;28;20210;-81
2022/03/19 04:23:22;;;;;;;19.20;9.40;;;;;;;-3.21;75.86;96630.34;5075279;28;20207;-80
2022/03/19 04:25:48;;;;;;;21.75;8.27;;;;;;;-3.20;74.20;96626.69;5086307;28;20205;-81
2022/03/19 04:28:15;;;;;;;18.83;7.70;;;;;;;-3.42;74.08;96627.72;5080143;28;20208;-80
2022/03/19 04:30:43;;;;;;;18.00;8.63;;;;;;;-3.21;72.92;96625.03;5081554;28;20284;-80
2022/03/19 04:33:10;;;;;;;12.65;7.45;;;;;;;-3.36;72.76;96624.31;5079421;28;20206;-80
2022/03/19 04:38:24;;;;;;;18.50;8.50;;;;;;;-3.61;72.68;96624.69;5069495;28;20853;-80
2022/03/19 04:40:52;;;;;;;17.33;7.70;;;;;;;-3.75;73.51;96636.19;5078031;28;20576;-80
2022/03/19 04:43:19;;;;;;;18.55;7.68;;;;;;;-3.77;73.44;96630.25;5083477;28;20244;-80
2022/03/19 04:45:47;;;;;;;17.92;7.93;;;;;;;-3.51;72.79;96628.84;5079597;28;20325;-81
2022/03/19 04:48:14;;;;;;;21.83;9.57;;;;;;;-3.30;72.86;96636.78;5082525;28;20227;-80
2022/03/19 04:50:42;;;;;;;18.23;8.57;;;;;;;-3.28;72.02;96618.88;5085947;28;20583;-79
2022/03/19 04:53:10;;;;;;;12.15;6.13;;;;;;;-2.69;72.30;96624.56;5084461;28;20198;-80
2022/03/19 04:55:40;;;;;;;17.55;7.95;;;;;;;-1.89;69.96;96615.09;5088368;28;20249;-81
2022/03/19 04:58:08;;;;;;;19.70;8.27;;;;;;;-0.89;67.24;96609.63;5084364;28;20212;-82
2022/03/19 05:00:35;;;;;;;22.27;8.63;;;;;;;-0.18;63.15;96609.66;5079113;28;20210;-81
2022/03/19 05:03:02;;;;;;;20.52;9.43;;;;;;;0.74;60.54;96607.47;5080803;28;20304;-81
2022/03/19 05:05:29;;;;;;;21.58;9.95;;;;;;;1.28;57.31;96599.59;5086581;28;20207;-82
2022/03/19 05:07:56;;;;;;;23.88;11.25;;;;;;;1.84;56.71;96595.91;5084842;28;20212;-81
2022/03/19 05:13:09;;;;;;;25.05;11.18;;;;;;;2.45;54.39;96595.72;5079452;28;20242;-81
2022/03/19 05:15:36;;;;;;;25.45;11.65;;;;;;;3.17;52.55;96593.75;5083927;28;20202;-81
2022/03/19 05:18:04;;;;;;;25.35;10.85;;;;;;;3.63;51.73;96591.28;5086155;28;20793;-81
2022/03/19 05:20:31;;;;;;;25.67;11.75;;;;;;;3.64;50.89;96587.56;5072945;28;20207;-82
2022/03/19 05:22:58;;;;;;;28.45;12.45;;;;;;;3.85;50.71;96594.97;5072942;28;20223;-81
2022/03/19 05:25:25;;;;;;;29.65;12.02;;;;;;;4.53;49.15;96594.97;5082321;28;20218;-81
2022/03/19 05:27:52;;;;;;;20.42;10.38;;;;;;;4.80;48.32;96592.47;5090060;28;20207;-81
2022/03/19 05:30:21;;;;;;;31.77;12.00;;;;;;;4.85;48.88;96600.63;5082634;28;20214;-81
2022/03/19 05:32:48;;;;;;;22.85;10.38;;;;;;;5.34;46.28;96592.81;5079098;28;20222;-80
2022/03/19 05:35:18;;;;;;;19.90;10.20;;;;;;;4.55;46.82;96608.16;5082312;28;20206;-81
2022/03/19 05:37:46;;;;;;;16.40;7.03;;;;;;;4.52;45.85;96600.56;5085564;28;20199;-79
2022/03/19 05:40:14;;;;;;;19.45;7.65;;;;;;;4.14;47.43;96610.06;5083907;28;20289;-80
2022/03/19 05:42:41;;;;;;;24.48;10.13;;;;;;;3.15;48.94;96608.41;5064597;28;20572;-82
2022/03/19 05:45:09;;;;;;;17.45;5.88;;;;;;;2.28;50.14;96615.31;5080262;28;20584;-85
2022/03/19 05:47:38;;;;;;;19.83;8.77;;;;;;;2.55;51.62;96615.75;5085398;28;20223;-80
2022/03/19 05:50:06;;;;;;;19.08;8.65;;;;;;;2.63;49.42;96624.25;5083468;28;20705;-80
2022/03/19 05:52:33;;;;;;;22.35;8.30;;;;;;;2.31;50.05;96620.22;5078313;28;20213;-84
2022/03/19 05:55:00;;;;;;;11.98;6.22;;;;;;;3.11;48.48;96617.97;5079123;28;20203;-79
2022/03/19 05:57:27;;;;;;;30.05;8.55;;;;;;;2.51;49.34;96615.38;5091447;28;20525;-78
2022/03/19 05:59:54;;;;;;;17.42;6.75;;;;;;;2.91;48.68;96612.94;5079069;28;20234;-79
2022/03/19 06:02:20;;;;;;;16.13;7.68;;;;;;;3.34;47.61;96615.28;5084476;28;20218;-77
2022/03/19 06:04:49;;;;;;;18.17;8.90;;;;;;;3.82;47.23;96603.50;5070960;28;20226;-78
2022/03/19 06:07:16;;;;;;;10.43;5.57;;;;;;;3.39;45.69;96611.94;5077628;28;20267;-77
2022/03/19 06:09:45;;;;;;;10.57;4.82;;;;;;;3.15;45.22;96616.44;5077333;28;20670;-86
2022/03/19 06:12:12;;;;;;;6.72;2.65;;;;;;;2.40;45.40;96621.50;5076930;28;20702;-75
2022/03/19 06:14:39;;;;;;;6.63;3.53;;;;;;;2.53;45.03;96618.66;5066221;28;20202;-81
2022/03/19 06:17:06;;;;;;;3.40;2.42;;;;;;;2.25;45.44;96621.91;5084601;28;20206;-78
2022/03/19 06:19:33;;;;;;;10.25;4.40;;;;;;;3.17;45.20;96611.69;5084701;28;20232;-78
2022/03/19 06:22:01;;;;;;;7.63;4.25;;;;;;;4.07;43.20;96608.56;5071628;28;20662;-79
2022/03/19 06:24:28;;;;;;;10.88;4.10;;;;;;;4.46;41.50;96605.03;5072993;28;20281;-82
2022/03/19 06:26:55;;;;;;;12.18;6.03;;;;;;;5.75;39.91;96585.31;5082996;28;20562;-86
2022/03/19 06:29:23;;;;;;;9.85;4.65;;;;;;;5.49;39.35;96598.41;5085734;28;20275;-84
2022/03/19 06:31:50;;;;;;;7.97;4.05;;;;;;;5.26;39.74;96601.28;5081889;28;20230;-88
2022/03/19 06:34:17;;;;;;;11.07;5.07;;;;;;;5.25;40.12;96599.66;5081284;28;20238;-84
2022/03/19 06:39:30;;;;;;;8.43;4.97;;;;;;;5.32;41.05;96592.25;5076914;28;20198;-85
2022/03/19 06:41:57;;;;;;;9.60;5.00;;;;;;;4.72;41.71;96619.75;5075786;28;20564;-85
2022/03/19 06:44:24;;;;;;;8.98;4.85;;;;;;;4.37;41.79;96608.34;5090829;28;20259;-80
2022/03/19 06:46:52;;;;;;;4.82;3.33;;;;;;;4.74;40.90;96620.31;5077915;28;20318;-73
2022/03/19 06:49:24;;;;;;;9.93;5.25;;;;;;;3.91;42.46;96615.47;5084853;28;20195;-79
2022/03/19 06:51:51;;;;;;;7.75;4.32;;;;;;;3.55;42.65;96627.31;5075957;28;20199;-74
2022/03/19 06:54:18;;;;;;;8.27;5.05;;;;;;;5.12;40.41;96611.56;5071262;28;20195;-74
2022/03/19 06:56:46;;;;;;;8.10;4.15;;;;;;;5.68;39.11;96602.47;5069310;28;20245;-78
2022/03/19 06:59:13;;;;;;;9.55;5.20;;;;;;;6.43;38.48;96598.28;5068124;28;20661;-78
2022/03/19 07:01:40;;;;;;;6.65;3.67;;;;;;;7.08;35.65;96563.13;5069320;28;20195;-80
2022/03/19 07:04:07;;;;;;;10.27;5.70;;;;;;;7.97;35.23;96578.50;5068284;28;20229;-79
2022/03/19 07:06:34;;;;;;;10.52;5.65;;;;;;;8.26;34.54;96580.78;5069697;28;20519;-78
2022/03/19 07:09:01;;;;;;;11.55;6.45;;;;;;;8.33;34.32;96576.78;5069549;28;20542;-78
2022/03/19 07:11:28;;;;;;;14.43;5.90;;;;;;;8.34;35.10;96577.56;5066761;28;20210;-78
2022/03/19 07:13:56;;;;;;;11.90;6.35;;;;;;;8.26;34.86;96576.19;5069527;28;20210;-80
2022/03/19 07:16:26;;;;;;;16.95;10.10;;;;;;;7.58;35.53;96575.31;5075651;28;20199;-80
2022/03/19 07:18:53;;;;;;;11.63;5.97;;;;;;;7.93;34.86;96576.56;5071394;28;20199;-82
2022/03/19 07:21:20;;;;;;;14.73;7.53;;;;;;;7.15;36.21;96579.06;5069622;28;20606;-78
2022/03/19 07:23:47;;;;;;;10.60;5.93;;;;;;;7.55;34.68;96575.81;5069308;28;20222;-75
2022/03/19 07:26:22;;;;;;;21.35;6.43;;;;;;;7.08;35.64;96567.69;5075598;28;20194;-76
2022/03/19 07:28:49;;;;;;;7.22;4.22;;;;;;;5.69;37.88;96582.59;5068668;28;20187;-77
2022/03/19 07:31:17;;;;;;;13.30;4.93;;;;;;;4.83;38.99;96586.63;5068624;28;20707;-75
2022/03/19 07:33:47;;;;;;;11.02;6.53;;;;;;;5.18;40.05;96599.03;5069279;28;20563;-77
2022/03/19 07:36:14;;;;;;;12.60;6.63;;;;;;;5.14;40.49;96584.44;5063074;28;20740;-78
2022/03/19 07:38:41;;;;;;;12.40;5.78;;;;;;;5.57;39.43;96579.19;5066839;28;20285;-77
2022/03/19 07:43:52;;;;;;;8.48;4.13;;;;;;;4.60;39.68;96597.50;5068358;28;20238;-78
2022/03/19 07:46:22;;;;;;;10.20;5.57;;;;;;;3.39;40.30;96595.84;5068961;28;20195;-76
2022/03/19 07:48:49;;;;;;;8.88;5.13;;;;;;;3.70;39.62;96597.31;5070157;28;20191;-77
2022/03/19 07:51:16;;;;;;;7.70;3.90;;;;;;;3.71;40.85;96601.63;5067918;28;20227;-76
2022/03/19 07:53:43;;;;;;;16.73;5.30;;;;;;;4.13;40.28;96600.38;5065511;28;20211;-77
2022/03/19 07:56:09;;;;;;;11.77;4.88;;;;;;;4.32;40.34;96598.34;5068350;28;20195;-77
2022/03/19 07:58:36;;;;;;;5.95;4.40;;;;;;;3.72;40.20;96596.03;5068800;28;20222;-76
2022/03/19 08:01:03;;;;;;;7.53;4.00;;;;;;;2.83;41.00;96608.72;5068345;28;20203;-75
2022/03/19 08:03:31;;;;;;;3.50;2.35;;;;;;;3.46;38.56;96597.34;5063497;28;20226;-79
2022/03/19 08:05:59;;;;;;;9.10;4.82;;;;;;;3.65;38.82;96587.31;5063066;28;20249;-81
2022/03/19 08:08:26;;;;;;;9.05;5.22;;;;;;;4.28;38.03;96594.50;5069940;28;20200;-77
2022/03/19 08:10:53;;;;;;;7.63;4.13;;;;;;;3.91;38.48;96604.75;5071152;28;20250;-78
2022/03/19 08:13:20;;;;;;;9.73;4.90;;;;;;;3.89;38.94;96601.50;5073014;28;20191;-80
2022/03/19 08:15:47;;;;;;;10.57;4.40;;;;;;;4.13;38.47;96592.31;5072939;28;20199;-81
2022/03/19 08:18:14;;;;;;;9.10;5.40;;;;;;;3.92;39.36;96606.38;5072896;28;20187;-75
2022/03/19 08:20:44;;;;;;;9.38;4.70;;;;;;;3.09;39.82;96596.78;5073275;28;20286;-76
2022/03/19 08:23:12;;;;;;;9.00;4.88;;;;;;;3.51;42.17;96588.63;5070251;28;20246;-77
2022/03/19 08:25:39;;;;;;;9.90;5.28;;;;;;;3.65;38.54;96598.03;5072265;28;20229;-75
2022/03/19 08:28:09;;;;;;;13.32;6.10;;;;;;;3.97;37.49;96594.94;5073338;28;20207;-77
2022/03/19 08:30:36;;;;;;;11.63;5.63;;;;;;;3.90;37.89;96595.91;5072755;28;20206;-79
2022/03/19 08:33:03;;;;;;;12.07;4.10;;;;;;;3.51;37.95;96602.03;5072472;28;20545;-80
2022/03/19 08:35:30;;;;;;;6.80;3.72;;;;;;;3.60;37.94;96591.75;5072672;28;20204;-79
2022/03/19 08:40:42;;;;;;;6.95;4.22;;;;;;;2.98;39.54;96588.75;5042020;28;20206;-80
2022/03/19 08:43:10;;;;;;;10.07;4.43;;;;;;;3.31;39.65;96588.97;5073542;28;20206;-80
2022/03/19 08:45:37;;;;;;;9.65;4.45;;;;;;;2.94;39.00;96595.59;5075626;28;20230;-79
2022/03/19 08:48:04;;;;;;;11.55;4.85;;;;;;;3.18;38.91;96589.22;5083311;28;20206;-76
2022/03/19 08:50:31;;;;;;;8.88;5.57;;;;;;;2.96;39.66;96601.53;5075450;28;20242;-79
2022/03/19 08:52:59;;;;;;;3.25;2.05;;;;;;;2.90;38.98;96581.84;5073963;28;20204;-77
2022/03/19 08:55:26;;;;;;;9.05;4.28;;;;;;;3.11;39.80;96588.53;5055367;28;20222;-78
2022/03/19 08:57:53;;;;;;;5.85;3.30;;;;;;;3.21;40.21;96588.75;5072270;28;20716;-77
2022/03/19 09:00:20;;;;;;;3.38;2.42;;;;;;;3.07;39.64;96579.31;5075366;28;20665;-74
2022/03/19 09:02:47;;;;;;;9.50;4.35;;;;;;;2.38;40.02;96583.47;5083386;28;20203;-79
2022/03/19 09:05:14;;;;;;;6.93;3.72;;;;;;;3.25;39.60;96573.84;5085888;28;20234;-78
2022/03/19 09:07:41;;;;;;;10.93;5.30;;;;;;;3.11;39.56;96583.16;5083005;28;20230;-81
2022/03/19 09:10:10;;;;;;;13.52;4.20;;;;;;;2.95;39.53;96576.63;5079405;28;20222;-77
2022/03/19 09:12:38;;;;;;;5.13;2.90;;;;;;;3.53;38.03;96573.94;5082852;28;20250;-77
2022/03/19 09:15:06;;;;;;;11.20;4.70;;;;;;;3.14;39.38;96567.44;5086302;28;20199;-76
2022/03/19 09:17:34;;;;;;;9.10;4.93;;;;;;;3.37;39.69;96561.25;5083793;28;20206;-79
2022/03/19 09:20:00;;;;;;;8.40;4.88;;;;;;;4.00;40.02;96564.97;5079345;28;20616;-79
2022/03/19 09:22:30;;;;;;;3.70;2.20;;;;;;;3.48;37.81;96568.47;5080928;28;20728;-79
2022/03/19 09:24:57;;;;;;;6.20;2.65;;;;;;;2.92;38.47;96569.06;5058907;28;20229;-82
2022/03/19 09:27:25;;;;;;;9.20;4.95;;;;;;;2.94;38.61;96563.47;5071770;28;20233;-78
2022/03/19 09:29:52;;;;;;;6.78;3.83;;;;;;;2.73;39.47;96564.84;5085573;28;20768;-78
2022/03/19 09:32:19;;;;;;;5.75;3.70;;;;;;;3.30;39.25;96565.91;5072059;28;20195;-79
2022/03/19 09:34:49;;;;;;;11.05;5.00;;;;;;;3.74;38.02;96571.69;5078224;28;20202;-78
2022/03/19 09:37:16;;;;;;;6.18;3.88;;;;;;;3.35;38.84;96562.53;5072558;28;20195;-80
2022/03/19 09:39:43;;;;;;;8.02;4.03;;;;;;;2.66;39.15;96589.03;5072589;28;20201;-79
2022/03/19 09:42:12;;;;;;;5.80;3.53;;;;;;;2.42;40.61;96573.97;5066087;28;20628;-80
2022/03/19 09:44:43;;;;;;;6.72;3.88;;;;;;;2.20;41.37;96567.47;5069986;28;20223;-79
2022/03/19 09:47:09;;;;;;;9.82;4.05;;;;;;;2.36;42.40;96569.50;5070617;28;20661;-78
2022/03/19 09:49:36;;;;;;;9.45;4.55;;;;;;;2.24;42.22;96566.00;5070243;28;20226;-77
2022/03/19 09:52:04;;;;;;;6.70;2.67;;;;;;;2.22;42.35;96562.72;5070227;28;20709;-77
2022/03/19 09:54:32;;;;;;;9.10;5.10;;;;;;;2.34;42.90;96556.38;5071104;28;20705;-80
2022/03/19 09:56:59;;;;;;;6.22;3.33;;;;;;;2.76;42.02;96565.19;5071737;28;20245;-79
2022/03/19 09:59:27;;;;;;;9.32;4.20;;;;;;;2.95;42.02;96557.06;5067920;28;20221;-76
2022/03/19 10:01:55;;;;;;;11.52;4.95;;;;;;;2.90;41.16;96556.94;5073861;28;20226;-80
2022/03/19 10:04:22;;;;;;;9.43;4.75;;;;;;;3.28;40.58;96557.28;5071989;28;20242;-78
2022/03/19 10:09:41;;;;;;;6.63;4.55;;;;;;;2.26;42.37;96563.91;5068780;28;20229;-75
2022/03/19 10:12:13;;;;;;;9.20;3.90;;;;;;;2.38;43.20;96567.44;5069738;28;20183;-76
2022/03/19 10:14:40;;;;;;;5.70;2.38;;;;;;;2.06;43.14;96559.66;5069708;28;20279;-75
2022/03/19 10:17:09;;;;;;;10.45;5.22;;;;;;;2.33;43.48;96569.97;5069495;28;20187;-77
2022/03/19 10:19:50;;;;;;;9.07;4.80;;;;;;;2.41;42.80;96577.69;5070364;28;20241;-77
2022/03/19 10:22:25;;;;;;;14.68;4.93;;;;;;;2.68;42.65;96562.88;5067548;28;20767;-81
2022/03/19 10:24:58;;;;;;;5.50;2.92;;;;;;;2.65;41.45;96549.94;5069166;28;20849;-78
2022/03/19 10:27:25;;;;;;;6.20;4.00;;;;;;;2.46;41.92;96553.75;5070360;28;20223;-78
2022/03/19 10:30:11;;;;;;;11.85;4.32;;;;;;;2.42;41.82;96555.25;5068676;28;20285;-78
2022/03/19 10:32:41;;;;;;;5.72;3.40;;;;;;;2.48;42.88;96567.69;5064937;28;20626;-85
2022/03/19 10:35:25;;;;;;;5.43;3.15;;;;;;;2.58;41.76;96562.63;5069599;28;20199;-80
2022/03/19 10:37:53;;;;;;;6.18;3.35;;;;;;;2.60;42.02;96565.06;5070651;28;20215;-86
2022/03/19 10:40:20;;;;;;;4.78;2.72;;;;;;;2.50;41.51;96555.72;5070750;28;20223;-78
2022/03/19 10:42:47;;;;;;;11.50;4.95;;;;;;;2.75;40.43;96542.16;5070468;28;20207;-85
2022/03/19 10:45:23;;;;;;;6.15;3.05;;;;;;;3.10;40.10;96550.22;5068305;28;20233;-80
2022/03/19 10:47:51;;;;;;;8.40;3.53;;;;;;;2.92;40.82;96539.63;5071859;28;20664;-82
2022/03/19 10:50:21;;;;;;;5.25;3.17;;;;;;;2.73;40.72;96544.25;5068928;28;20230;-80
2022/03/19 10:52:51;;;;;;;10.65;3.67;;;;;;;2.62;41.45;96541.56;5070335;28;20183;-79
2022/03/19 10:55:19;;;;;;;3.75;2.55;;;;;;;2.50;40.28;96549.56;5084159;28;20226;-79
2022/03/19 10:57:47;;;;;;;7.35;3.40;;;;;;;2.66;40.94;96535.53;5069754;28;20214;-75
2022/03/19 11:00:16;;;;;;;10.07;3.78;;;;;;;2.35;40.90;96567.88;5071662;28;20206;-78
2022/03/19 11:02:47;;;;;;;8.52;2.90;;;;;;;1.92;42.32;96536.81;5080963;28;20241;-80
2022/03/19 11:05:18;;;;;;;2.40;1.60;;;;;;;2.46;41.79;96545.72;5079594;28;20224;-79
2022/03/19 11:07:46;;;;;;;3.88;2.22;;;;;;;2.47;42.15;96536.63;5060598;28;20210;-82
2022/03/19 11:10:14;;;;;;;4.43;2.65;;;;;;;2.65;41.74;96528.53;5083789;28;20284;-80
2022/03/19 11:12:50;;;;;;;9.23;2.58;;;;;;;3.05;40.89;96535.88;5073007;28;20802;-82
2022/03/19 11:15:19;;;;;;;3.97;2.97;;;;;;;3.27;40.94;96528.91;5083265;28;20256;-79
2022/03/19 11:17:49;;;;;;;4.95;3.60;;;;;;;3.32;40.64;96534.34;5080336;28;20201;-78
2022/03/19 11:20:18;;;;;;;5.38;3.00;;;;;;;3.10;40.74;96523.44;5066926;28;20214;-84
2022/03/19 11:22:47;;;;;;;5.93;3.63;;;;;;;3.01;42.15;96518.66;5071459;28;20198;-82
2022/03/19 11:25:22;;;;;;;6.28;3.58;;;;;;;3.42;40.72;96528.41;5070471;28;20559;-78
2022/03/19 11:27:52;;;;;;;5.85;3.30;;;;;;;3.67;39.15;96517.41;5070526;28;20273;-83
2022/03/19 11:30:22;;;;;;;5.63;2.55;;;;;;;3.04;40.14;96512.84;5071297;28;20201;-76
2022/03/19 11:33:08;;;;;;;6.00;3.03;;;;;;;3.22;40.79;96512.72;5066500;28;20274;-76
2022/03/19 11:35:42;;;;;;;7.22;3.83;;;;;;;2.83;41.13;96512.38;5067273;28;20187;-81
2022/03/19 11:38:11;;;;;;;7.45;3.20;;;;;;;2.74;41.69;96529.00;5069715;28;20289;-80
2022/03/19 11:40:42;;;;;;;5.65;3.05;;;;;;;2.75;41.68;96520.75;5065253;28;20230;-79
2022/03/19 11:43:10;;;;;;;6.47;3.38;;;;;;;2.60;41.21;96508.88;5070002;28;20304;-79
2022/03/19 11:45:51;;;;;;;7.28;3.67;;;;;;;2.99;41.56;96499.34;5086264;28;20235;-82
2022/03/19 11:48:39;;;;;;;6.15;3.03;;;;;;;3.01;42.40;96500.72;5086945;28;20590;-76
2022/03/19 11:51:22;;;;;;;4.80;2.58;;;;;;;3.06;41.80;96500.03;5069444;28;20232;-79
2022/03/19 11:53:54;;;;;;;6.43;2.97;;;;;;;3.04;41.24;96494.09;5080941;28;20980;-83
2022/03/19 11:56:22;;;;;;;4.07;2.72;;;;;;;3.59;41.39;96494.47;5082274;28;20207;-83